Hauptseite
METAR-TAF:

METAR-TAF

Flughäfen :

Bergamo, Italien

Flughafen Bergamo

Breite: 45-40N, Länge: 009-42E, Höhe: 238 m

Beobachtung

Neuester Wetterbericht von vor 29 Minuten, um 08:50 UTC
Wind 5 kt aus West/Südwest, variierte zwischen Süd und West/Nordwest
Temperatur 21°C
Luftfeuchtigkeit 53%
Luftdruck 1018 hPa
Sichtweite 10 km oder mehr
keine Wolken unter 1500 m und keine Kumulonimbus oder Gewitterwolken

METAR: LIME 230850Z 25005KT 180V300 CAVOK 21/11 Q1018 NOSIG

Zeit: 11:19 (09:19 UTC)

Prognose

Neuester Wetterbericht von vor 4 Stunden und 19 Minuten, um 05:00 UTC
Gültige Prognose vom 23 um 06 UTC bis 24 um 06 UTC
Wind 5 kt aus Südwest
Sichtweite 10 km oder mehr
keine Wolken unter 1500 m und keine Kumulonimbus oder Gewitterwolken
Wahrscheinlichkeit 30% :
Zeitweise
vom 23 um 17 UTC bis 23 um 23 UTC
Regenschauer

TAF: LIME 230500Z 2306/2406 22005KT CAVOK PROB30 TEMPO 2317/2323 SHRA

Wetterbeobachtungen und Prognosen von mehr als 4000 Flughäfen (METAR und TAF Bericht).

Die verfügbaren Stationen werden durch gelbe und rote Markierungen auf der Karte dargestellt.

Führen Sie die Maus auf sie, um den Namen der Station zu sehen.

Darauf klicken, um die Beobachtung von Wetterbeobachtungen und Prognosen zu sehen.

Um die Karte zu ändern : klicken Sie auf den grünen Tasten mit einem schwarzen Kreuz Zum Vergrößern, auf den grünen Button mit einem Gedankenstrich zu verkleinern, oder auf die grünen Pfeile für benachbarte Karten.


METAR-TAF: